Time;durP1;ratioP1;P1;durP2;ratioP2;P2;SDS_P1;SDS_P2;PMS_P1;PMS_P2;Temp;Humidity;BMP_temperature;BMP_pressure;BME280_temperature;BME280_humidity;BME280_pressure;Samples;Min_cycle;Max_cycle;Signal;HPM_P1;HPM_P2
2023/10/17 00:02:50;;;;;;;;;;;;;;;;;;5072984;28;659;-69
2023/10/17 00:05:15;;;;;;;;;;;;;;;;;;5073444;28;880;-69
2023/10/17 00:07:45;;;;;;;;;;;;;;;;;;5054901;28;1183;-69
2023/10/17 00:10:15;;;;;;;;;;;;;;;;;;5073683;28;828;-69
2023/10/17 00:12:44;;;;;;;;;;;;;;;;;;5070677;28;825;-69
2023/10/17 00:15:17;;;;;;;;;;;;;;;;;;5073319;28;829;-69
2023/10/17 00:17:42;;;;;;;;;;;;;;;;;;5072565;28;1905;-69
2023/10/17 00:20:16;;;;;;;;;;;;;;;;;;5071887;28;1178;-69
2023/10/17 00:22:42;;;;;;;;;;;;;;;;;;5055389;28;1254;-69
2023/10/17 00:25:10;;;;;;;;;;;;;;;;;;5073573;28;970;-69
2023/10/17 00:27:35;;;;;;;;;;;;;;;;;;5055073;28;1242;-69
2023/10/17 00:30:00;;;;;;;;;;;;;;;;;;5072748;28;1058;-69
2023/10/17 00:32:31;;;;;;;;;;;;;;;;;;5072726;28;900;-69
2023/10/17 00:34:56;;;;;;;;;;;;;;;;;;5072470;28;881;-69
2023/10/17 00:37:26;;;;;;;;;;;;;;;;;;5071409;28;1890;-69
2023/10/17 00:39:51;;;;;;;;;;;;;;;;;;5073515;28;1162;-69
2023/10/17 00:42:34;;;;;;;;;;;;;;;;;;5073628;28;809;-69
2023/10/17 00:45:00;;;;;;;;;;;;;;;;;;5073040;28;904;-68
2023/10/17 00:47:27;;;;;;;;;;;;;;;;;;5055475;28;1179;-69
2023/10/17 00:49:52;;;;;;;;;;;;;;;;;;5055261;28;1365;-69
2023/10/17 00:52:25;;;;;;;;;;;;;;;;;;5073128;28;1058;-69
2023/10/17 00:54:53;;;;;;;;;;;;;;;;;;5071430;28;1206;-69
2023/10/17 00:57:22;;;;;;;;;;;;;;;;;;5071401;28;1957;-69
2023/10/17 00:59:50;;;;;;;;;;;;;;;;;;5070973;28;1289;-69
2023/10/17 01:02:20;;;;;;;;;;;;;;;;;;5071212;28;848;-69
2023/10/17 01:04:45;;;;;;;;;;;;;;;;;;5071912;28;927;-69
2023/10/17 01:07:11;;;;;;;;;;;;;;;;;;5071801;28;1049;-69
2023/10/17 01:09:37;;;;;;;;;;;;;;;;;;5070327;28;821;-69
2023/10/17 01:12:10;;;;;;;;;;;;;;;;;;5071499;28;901;-69
2023/10/17 01:14:35;;;;;;;;;;;;;;;;;;5071570;28;798;-69
2023/10/17 01:17:05;;;;;;;;;;;;;;;;;;5072483;28;1910;-69
2023/10/17 01:19:32;;;;;;;;;;;;;;;;;;5070166;28;880;-69
2023/10/17 01:21:57;;;;;;;;;;;;;;;;;;5072011;28;876;-69
2023/10/17 01:24:23;;;;;;;;;;;;;;;;;;5070669;28;1479;-69
2023/10/17 01:26:48;;;;;;;;;;;;;;;;;;5072012;28;911;-69
2023/10/17 01:29:13;;;;;;;;;;;;;;;;;;5072477;28;912;-69
2023/10/17 01:31:42;;;;;;;;;;;;;;;;;;5070912;28;982;-69
2023/10/17 01:34:08;;;;;;;;;;;;;;;;;;5071388;28;1190;-69
2023/10/17 01:36:36;;;;;;;;;;;;;;;;;;5072252;28;865;-69
2023/10/17 01:39:11;;;;;;;;;;;;;;;;;;5071578;28;1989;-69
2023/10/17 01:41:38;;;;;;;;;;;;;;;;;;5071790;28;875;-69
2023/10/17 01:44:04;;;;;;;;;;;;;;;;;;5072333;28;802;-68
2023/10/17 01:46:29;;;;;;;;;;;;;;;;;;5070955;28;1472;-68
2023/10/17 01:48:55;;;;;;;;;;;;;;;;;;5070636;28;1551;-68
2023/10/17 01:51:21;;;;;;;;;;;;;;;;;;5070744;28;1203;-68
2023/10/17 01:53:53;;;;;;;;;;;;;;;;;;5071619;28;906;-67
2023/10/17 01:56:26;;;;;;;;;;;;;;;;;;5071469;28;868;-67
2023/10/17 01:58:55;;;;;;;;;;;;;;;;;;5069999;28;1969;-67
2023/10/17 02:01:29;;;;;;;;;;;;;;;;;;5071317;28;877;-67
2023/10/17 02:04:03;;;;;;;;;;;;;;;;;;5071378;28;861;-67
2023/10/17 02:06:30;;;;;;;;;;;;;;;;;;5070650;28;927;-67
2023/10/17 02:08:58;;;;;;;;;;;;;;;;;;5071558;28;939;-67
2023/10/17 02:11:23;;;;;;;;;;;;;;;;;;5071814;28;860;-67
2023/10/17 02:13:53;;;;;;;;;;;;;;;;;;5070336;28;1191;-67
2023/10/17 02:16:19;;;;;;;;;;;;;;;;;;5071917;28;852;-67
2023/10/17 02:18:45;;;;;;;;;;;;;;;;;;5071308;28;1922;-67
2023/10/17 02:21:12;;;;;;;;;;;;;;;;;;5072021;28;907;-67
2023/10/17 02:23:48;;;;;;;;;;;;;;;;;;5071283;28;903;-68
2023/10/17 02:26:14;;;;;;;;;;;;;;;;;;5071494;28;904;-67
2023/10/17 02:28:46;;;;;;;;;;;;;;;;;;5070615;28;937;-67
2023/10/17 02:31:15;;;;;;;;;;;;;;;;;;5070324;28;1219;-67
2023/10/17 02:33:44;;;;;;;;;;;;;;;;;;5069753;28;1502;-67
2023/10/17 02:36:12;;;;;;;;;;;;;;;;;;5074000;28;1360;-67
2023/10/17 02:38:41;;;;;;;;;;;;;;;;;;5075219;28;1890;-67
2023/10/17 02:41:12;;;;;;;;;;;;;;;;;;5075351;28;847;-67
2023/10/17 02:43:40;;;;;;;;;;;;;;;;;;5074817;28;864;-68
2023/10/17 02:46:05;;;;;;;;;;;;;;;;;;5075128;28;857;-67
2023/10/17 02:48:37;;;;;;;;;;;;;;;;;;5073372;28;899;-67
2023/10/17 02:51:03;;;;;;;;;;;;;;;;;;5074509;28;965;-67
2023/10/17 02:53:30;;;;;;;;;;;;;;;;;;5056260;28;1353;-68
2023/10/17 02:55:55;;;;;;;;;;;;;;;;;;5073303;28;1302;-68
2023/10/17 02:58:21;;;;;;;;;;;;;;;;;;5074361;28;1976;-68
2023/10/17 03:00:50;;;;;;;;;;;;;;;;;;5074041;28;943;-68
2023/10/17 03:03:16;;;;;;;;;;;;;;;;;;5072932;28;1471;-68
2023/10/17 03:05:44;;;;;;;;;;;;;;;;;;5073887;28;872;-68
2023/10/17 03:08:29;;;;;;;;;;;;;;;;;;5074460;28;943;-68
2023/10/17 03:10:57;;;;;;;;;;;;;;;;;;5074528;28;864;-68
2023/10/17 03:13:23;;;;;;;;;;;;;;;;;;5074110;28;813;-68
2023/10/17 03:15:57;;;;;;;;;;;;;;;;;;5073519;28;1120;-68
2023/10/17 03:18:23;;;;;;;;;;;;;;;;;;5073471;28;1921;-68
2023/10/17 03:20:52;;;;;;;;;;;;;;;;;;5074855;28;860;-68
2023/10/17 03:23:18;;;;;;;;;;;;;;;;;;5075003;28;852;-68
2023/10/17 03:25:46;;;;;;;;;;;;;;;;;;5073012;28;1506;-68
2023/10/17 03:28:13;;;;;;;;;;;;;;;;;;5074931;28;896;-68
2023/10/17 03:30:39;;;;;;;;;;;;;;;;;;5072938;28;1218;-68
2023/10/17 03:33:14;;;;;;;;;;;;;;;;;;5074016;28;995;-68
2023/10/17 03:35:49;;;;;;;;;;;;;;;;;;5073907;28;865;-68
2023/10/17 03:38:15;;;;;;;;;;;;;;;;;;5072467;28;1898;-68
2023/10/17 03:40:41;;;;;;;;;;;;;;;;;;5074230;28;857;-68
2023/10/17 03:43:12;;;;;;;;;;;;;;;;;;5073706;28;947;-68
2023/10/17 03:45:44;;;;;;;;;;;;;;;;;;5071645;28;1387;-68
2023/10/17 03:48:15;;;;;;;;;;;;;;;;;;5074043;28;967;-68
2023/10/17 03:53:29;;;;;;;;;;;;;;;;;;5074360;28;813;-68
2023/10/17 03:55:55;;;;;;;;;;;;;;;;;;5074386;28;861;-68
2023/10/17 04:00:50;;;;;;;;;;;;;;;;;;5072828;28;781;-68
2023/10/17 04:03:30;;;;;;;;;;;;;;;;;;5073894;28;852;-68
2023/10/17 04:06:17;;;;;;;;;;;;;;;;;;5058148;28;1433;-68
2023/10/17 04:08:49;;;;;;;;;;;;;;;;;;5071765;28;1104;-68
2023/10/17 04:11:18;;;;;;;;;;;;;;;;;;5073541;28;903;-68
2023/10/17 04:13:50;;;;;;;;;;;;;;;;;;5073705;28;848;-68
2023/10/17 04:16:22;;;;;;;;;;;;;;;;;;5072611;28;1213;-68
2023/10/17 04:19:00;;;;;;;;;;;;;;;;;;5071565;28;1968;-69
2023/10/17 04:23:55;;;;;;;;;;;;;;;;;;5073510;28;907;-68
2023/10/17 04:26:27;;;;;;;;;;;;;;;;;;5072694;28;848;-68
2023/10/17 04:28:54;;;;;;;;;;;;;;;;;;5055783;28;1216;-68
2023/10/17 04:31:25;;;;;;;;;;;;;;;;;;5073321;28;958;-68
2023/10/17 04:34:06;;;;;;;;;;;;;;;;;;5072498;28;932;-68
2023/10/17 04:36:38;;;;;;;;;;;;;;;;;;5072457;28;928;-68
2023/10/17 04:39:11;;;;;;;;;;;;;;;;;;5071210;28;1905;-68
2023/10/17 04:44:18;;;;;;;;;;;;;;;;;;5072853;28;835;-70
2023/10/17 04:46:50;;;;;;;;;;;;;;;;;;5072253;28;1104;-68
2023/10/17 04:49:19;;;;;;;;;;;;;;;;;;5072501;28;896;-68
2023/10/17 04:51:44;;;;;;;;;;;;;;;;;;5071110;28;1246;-68
2023/10/17 04:56:55;;;;;;;;;;;;;;;;;;5053745;28;920;-68
2023/10/17 05:02:42;;;;;;;;;;;;;;;;;;5053220;28;674;-68
2023/10/17 06:18:31;;;;;;;;;;;;;;;;;;5050831;28;1902;-68
2023/10/17 06:34:18;;;;;;;;;;;;;;;;;;5050911;28;895;-68
2023/10/17 06:36:45;;;;;;;;;;;;;;;;;;5050633;28;1046;-67
2023/10/17 06:39:16;;;;;;;;;;;;;;;;;;5050343;28;1915;-68
2023/10/17 06:41:44;;;;;;;;;;;;;;;;;;5050040;28;955;-67
2023/10/17 06:44:10;;;;;;;;;;;;;;;;;;5050065;28;927;-68
2023/10/17 06:54:41;;;;;;;;;;;;;;;;;;5051439;28;853;-68
2023/10/17 06:57:19;;;;;;;;;;;;;;;;;;5050140;28;1254;-68
2023/10/17 06:59:50;;;;;;;;;;;;;;;;;;5050139;28;873;-68
2023/10/17 07:02:18;;;;;;;;;;;;;;;;;;5050345;28;1335;-68
2023/10/17 07:04:44;;;;;;;;;;;;;;;;;;5047574;28;1305;-68
2023/10/17 07:07:13;;;;;;;;;;;;;;;;;;5056990;28;1317;-68
2023/10/17 07:09:39;;;;;;;;;;;;;;;;;;5064905;28;1148;-68
2023/10/17 07:12:13;;;;;;;;;;;;;;;;;;5070598;28;1369;-68
2023/10/17 07:14:40;;;;;;;;;;;;;;;;;;5071798;28;888;-68
2023/10/17 07:17:17;;;;;;;;;;;;;;;;;;5070777;28;841;-68
2023/10/17 07:19:46;;;;;;;;;;;;;;;;;;5070902;28;876;-68
2023/10/17 07:22:13;;;;;;;;;;;;;;;;;;5075440;28;837;-68
2023/10/17 07:24:42;;;;;;;;;;;;;;;;;;5053557;28;1199;-68
2023/10/17 07:27:18;;;;;;;;;;;;;;;;;;5055367;28;876;-68
2023/10/17 07:30:01;;;;;;;;;;;;;;;;;;5053220;28;1488;-68
2023/10/17 07:32:49;;;;;;;;;;;;;;;;;;5054949;28;935;-68
2023/10/17 07:35:23;;;;;;;;;;;;;;;;;;5054178;28;1216;-68
2023/10/17 07:37:48;;;;;;;;;;;;;;;;;;5053695;28;1971;-68
2023/10/17 07:42:42;;;;;;;;;;;;;;;;;;5052718;28;927;-68
2023/10/17 07:45:14;;;;;;;;;;;;;;;;;;5052582;28;1346;-68
2023/10/17 07:47:54;;;;;;;;;;;;;;;;;;5053548;28;884;-68
2023/10/17 07:50:20;;;;;;;;;;;;;;;;;;5054005;28;1236;-68
2023/10/17 07:52:54;;;;;;;;;;;;;;;;;;5052423;28;912;-68
2023/10/17 07:55:34;;;;;;;;;;;;;;;;;;5053931;28;954;-68
2023/10/17 07:58:06;;;;;;;;;;;;;;;;;;5052465;28;1902;-68
2023/10/17 08:00:35;;;;;;;;;;;;;;;;;;5053510;28;892;-68
2023/10/17 08:03:14;;;;;;;;;;;;;;;;;;5052291;28;1230;-68
2023/10/17 08:05:45;;;;;;;;;;;;;;;;;;5052966;28;948;-68
2023/10/17 08:08:14;;;;;;;;;;;;;;;;;;5053072;28;937;-68
2023/10/17 08:10:39;;;;;;;;;;;;;;;;;;5052572;28;888;-68
2023/10/17 08:13:07;;;;;;;;;;;;;;;;;;5053580;28;878;-68
2023/10/17 08:15:46;;;;;;;;;;;;;;;;;;5052408;28;901;-68
2023/10/17 08:18:14;;;;;;;;;;;;;;;;;;5051511;28;1914;-68
2023/10/17 08:23:26;;;;;;;;;;;;;;;;;;5053289;28;720;-68
2023/10/17 08:25:54;;;;;;;;;;;;;;;;;;5035140;28;924;-68
2023/10/17 08:31:06;;;;;;;;;;;;;;;;;;5052932;28;659;-68
2023/10/17 08:33:37;;;;;;;;;;;;;;;;;;5050490;28;1207;-68
2023/10/17 08:36:03;;;;;;;;;;;;;;;;;;5035980;28;1279;-68
2023/10/17 08:38:33;;;;;;;;;;;;;;;;;;5052464;28;1882;-68
2023/10/17 08:41:04;;;;;;;;;;;;;;;;;;5053124;28;931;-68
2023/10/17 08:43:32;;;;;;;;;;;;;;;;;;5052679;28;1073;-68
2023/10/17 08:45:58;;;;;;;;;;;;;;;;;;5051690;28;1121;-68
2023/10/17 08:48:24;;;;;;;;;;;;;;;;;;5051290;28;895;-68
2023/10/17 08:50:53;;;;;;;;;;;;;;;;;;5050902;28;1204;-68
2023/10/17 08:53:21;;;;;;;;;;;;;;;;;;5052922;28;766;-68
2023/10/17 08:55:48;;;;;;;;;;;;;;;;;;5052466;28;916;-68
2023/10/17 08:58:15;;;;;;;;;;;;;;;;;;5051697;28;1957;-68
2023/10/17 09:03:28;;;;;;;;;;;;;;;;;;5052859;28;793;-68
2023/10/17 09:06:28;;;;;;;;;;;;;;;;;;5051873;28;1502;-68
2023/10/17 09:09:17;;;;;;;;;;;;;;;;;;5052735;28;1152;-68
2023/10/17 09:12:01;;;;;;;;;;;;;;;;;;5052914;28;1116;-68
2023/10/17 09:14:29;;;;;;;;;;;;;;;;;;5052853;28;920;-68
2023/10/17 09:17:16;;;;;;;;;;;;;;;;;;5051395;28;1248;-68
2023/10/17 09:19:51;;;;;;;;;;;;;;;;;;5052372;28;931;-68
2023/10/17 09:22:38;;;;;;;;;;;;;;;;;;5051775;28;950;-68
2023/10/17 09:25:16;;;;;;;;;;;;;;;;;;5052045;28;1396;-68
2023/10/17 09:27:41;;;;;;;;;;;;;;;;;;5051276;28;1232;-68
2023/10/17 09:30:10;;;;;;;;;;;;;;;;;;5052013;28;848;-68
2023/10/17 09:32:40;;;;;;;;;;;;;;;;;;5051047;28;898;-68
2023/10/17 09:35:16;;;;;;;;;;;;;;;;;;5050456;28;1366;-67
2023/10/17 09:37:42;;;;;;;;;;;;;;;;;;5067107;28;1906;-68
2023/10/17 09:40:14;;;;;;;;;;;;;;;;;;5052076;28;1008;-68
2023/10/17 09:42:46;;;;;;;;;;;;;;;;;;5051655;28;880;-68
2023/10/17 09:45:13;;;;;;;;;;;;;;;;;;5051483;28;787;-68
2023/10/17 09:47:39;;;;;;;;;;;;;;;;;;5050229;28;1101;-68
2023/10/17 09:50:08;;;;;;;;;;;;;;;;;;5051984;28;849;-69
2023/10/17 09:52:34;;;;;;;;;;;;;;;;;;5051653;28;896;-68
2023/10/17 09:55:04;;;;;;;;;;;;;;;;;;5034317;28;1335;-68
2023/10/17 09:57:31;;;;;;;;;;;;;;;;;;5051710;28;1890;-69
2023/10/17 10:00:14;;;;;;;;;;;;;;;;;;5052125;28;919;-68
2023/10/17 10:02:40;;;;;;;;;;;;;;;;;;5051495;28;899;-68
2023/10/17 10:05:20;;;;;;;;;;;;;;;;;;5051924;28;888;-68
2023/10/17 10:07:45;;;;;;;;;;;;;;;;;;5051032;28;892;-68
2023/10/17 10:10:31;;;;;;;;;;;;;;;;;;5050191;28;896;-68
2023/10/17 10:12:57;;;;;;;;;;;;;;;;;;5051525;28;1029;-68
2023/10/17 10:15:46;;;;;;;;;;;;;;;;;;5050078;28;1574;-68
2023/10/17 10:18:12;;;;;;;;;;;;;;;;;;5050184;28;1907;-68
2023/10/17 10:20:57;;;;;;;;;;;;;;;;;;5032779;28;1472;-68
2023/10/17 10:23:41;;;;;;;;;;;;;;;;;;5033541;28;1542;-69
2023/10/17 10:26:19;;;;;;;;;;;;;;;;;;5034233;28;1363;-68
2023/10/17 10:28:45;;;;;;;;;;;;;;;;;;5051284;28;896;-68
2023/10/17 10:31:22;;;;;;;;;;;;;;;;;;5051892;28;943;-69
2023/10/17 10:33:58;;;;;;;;;;;;;;;;;;5050946;28;904;-69
2023/10/17 10:36:23;;;;;;;;;;;;;;;;;;5051846;28;814;-68
2023/10/17 10:38:49;;;;;;;;;;;;;;;;;;5050267;28;2012;-69
2023/10/17 10:41:15;;;;;;;;;;;;;;;;;;5051691;28;975;-69
2023/10/17 10:43:44;;;;;;;;;;;;;;;;;;5051035;28;905;-68
2023/10/17 10:46:10;;;;;;;;;;;;;;;;;;5051525;28;900;-69
2023/10/17 10:48:38;;;;;;;;;;;;;;;;;;5051669;28;829;-68
2023/10/17 10:51:04;;;;;;;;;;;;;;;;;;5051520;28;885;-68
2023/10/17 10:53:36;;;;;;;;;;;;;;;;;;5051242;28;872;-69
2023/10/17 10:56:09;;;;;;;;;;;;;;;;;;5051472;28;900;-69
2023/10/17 10:58:41;;;;;;;;;;;;;;;;;;5054694;28;1913;-68
2023/10/17 11:01:07;;;;;;;;;;;;;;;;;;5054094;28;1096;-69
2023/10/17 11:03:38;;;;;;;;;;;;;;;;;;5055046;28;932;-68
2023/10/17 11:06:04;;;;;;;;;;;;;;;;;;5036375;28;1035;-69
2023/10/17 11:08:36;;;;;;;;;;;;;;;;;;5053596;28;1334;-68
2023/10/17 11:11:03;;;;;;;;;;;;;;;;;;5055951;28;888;-69
2023/10/17 11:13:40;;;;;;;;;;;;;;;;;;5054129;28;1478;-69
2023/10/17 11:16:06;;;;;;;;;;;;;;;;;;5055767;28;872;-69
2023/10/17 11:18:38;;;;;;;;;;;;;;;;;;5053806;28;1909;-69
2023/10/17 11:21:05;;;;;;;;;;;;;;;;;;5055347;28;849;-68
2023/10/17 11:23:32;;;;;;;;;;;;;;;;;;5055135;28;848;-68
2023/10/17 11:25:59;;;;;;;;;;;;;;;;;;5055018;28;924;-69
2023/10/17 11:28:27;;;;;;;;;;;;;;;;;;5053673;28;1267;-68
2023/10/17 11:30:53;;;;;;;;;;;;;;;;;;5053257;28;1048;-68
2023/10/17 11:33:28;;;;;;;;;;;;;;;;;;5052797;28;982;-68
2023/10/17 11:35:54;;;;;;;;;;;;;;;;;;5053515;28;856;-68
2023/10/17 11:38:33;;;;;;;;;;;;;;;;;;5054391;28;1898;-68
2023/10/17 11:41:03;;;;;;;;;;;;;;;;;;5053956;28;951;-68
2023/10/17 11:43:28;;;;;;;;;;;;;;;;;;5054039;28;876;-68
2023/10/17 11:45:54;;;;;;;;;;;;;;;;;;5052444;28;1366;-68
2023/10/17 11:48:26;;;;;;;;;;;;;;;;;;5053909;28;849;-68
2023/10/17 11:51:02;;;;;;;;;;;;;;;;;;5053443;28;952;-68
2023/10/17 11:53:27;;;;;;;;;;;;;;;;;;5053887;28;845;-68
2023/10/17 11:55:53;;;;;;;;;;;;;;;;;;5051871;28;956;-69
2023/10/17 11:58:25;;;;;;;;;;;;;;;;;;5054102;28;1887;-68
2023/10/17 12:00:50;;;;;;;;;;;;;;;;;;5052132;28;1346;-68
2023/10/17 12:03:19;;;;;;;;;;;;;;;;;;5053818;28;1207;-69
2023/10/17 12:05:44;;;;;;;;;;;;;;;;;;5052432;28;904;-69
2023/10/17 12:08:09;;;;;;;;;;;;;;;;;;5050988;28;977;-68
2023/10/17 12:10:42;;;;;;;;;;;;;;;;;;5053583;28;908;-69
2023/10/17 12:13:08;;;;;;;;;;;;;;;;;;5053871;28;881;-69
2023/10/17 12:15:34;;;;;;;;;;;;;;;;;;5053559;28;868;-68
2023/10/17 12:17:59;;;;;;;;;;;;;;;;;;5051916;28;1910;-69
2023/10/17 12:20:28;;;;;;;;;;;;;;;;;;5053899;28;814;-68
2023/10/17 12:22:57;;;;;;;;;;;;;;;;;;5052990;28;1357;-69
2023/10/17 12:25:23;;;;;;;;;;;;;;;;;;5052324;28;1651;-68
2023/10/17 12:27:49;;;;;;;;;;;;;;;;;;5052887;28;833;-68
2023/10/17 12:30:22;;;;;;;;;;;;;;;;;;5052522;28;1227;-68
2023/10/17 12:32:47;;;;;;;;;;;;;;;;;;5052808;28;836;-69
2023/10/17 12:35:16;;;;;;;;;;;;;;;;;;5053458;28;924;-69
2023/10/17 12:37:45;;;;;;;;;;;;;;;;;;5052778;28;1902;-68
2023/10/17 12:40:18;;;;;;;;;;;;;;;;;;5035397;28;1337;-68
2023/10/17 12:42:44;;;;;;;;;;;;;;;;;;5051343;28;852;-68
2023/10/17 12:45:09;;;;;;;;;;;;;;;;;;5051395;28;1619;-68
2023/10/17 12:47:35;;;;;;;;;;;;;;;;;;5052576;28;845;-69
2023/10/17 12:50:00;;;;;;;;;;;;;;;;;;5051318;28;1293;-69
2023/10/17 12:52:26;;;;;;;;;;;;;;;;;;5052804;28;900;-69
2023/10/17 12:54:51;;;;;;;;;;;;;;;;;;5051770;28;812;-69
2023/10/17 12:57:17;;;;;;;;;;;;;;;;;;5051601;28;1349;-69
2023/10/17 12:59:42;;;;;;;;;;;;;;;;;;5052260;28;1914;-69
2023/10/17 13:02:10;;;;;;;;;;;;;;;;;;5051055;28;1312;-70
2023/10/17 13:04:36;;;;;;;;;;;;;;;;;;5052823;28;868;-69
2023/10/17 13:07:01;;;;;;;;;;;;;;;;;;5034962;28;1089;-69
2023/10/17 13:09:31;;;;;;;;;;;;;;;;;;5053034;28;876;-69
2023/10/17 13:11:57;;;;;;;;;;;;;;;;;;5053352;28;896;-69
2023/10/17 13:14:23;;;;;;;;;;;;;;;;;;5035129;28;1474;-69
2023/10/17 13:16:48;;;;;;;;;;;;;;;;;;5052674;28;809;-70
2023/10/17 13:19:16;;;;;;;;;;;;;;;;;;5051504;28;1910;-69
2023/10/17 13:21:44;;;;;;;;;;;;;;;;;;5050821;28;852;-69
2023/10/17 13:24:09;;;;;;;;;;;;;;;;;;5052295;28;816;-69
2023/10/17 13:26:37;;;;;;;;;;;;;;;;;;5052073;28;947;-70
2023/10/17 13:29:04;;;;;;;;;;;;;;;;;;5051925;28;943;-69
2023/10/17 13:31:29;;;;;;;;;;;;;;;;;;5052147;28;825;-69
2023/10/17 13:33:55;;;;;;;;;;;;;;;;;;5050321;28;833;-69
2023/10/17 13:36:21;;;;;;;;;;;;;;;;;;5051766;28;1027;-69
2023/10/17 13:38:48;;;;;;;;;;;;;;;;;;5050634;28;1957;-69
2023/10/17 13:41:15;;;;;;;;;;;;;;;;;;5051498;28;1161;-69
2023/10/17 13:43:41;;;;;;;;;;;;;;;;;;5052370;28;812;-69
2023/10/17 13:46:16;;;;;;;;;;;;;;;;;;5050218;28;908;-69
2023/10/17 13:48:50;;;;;;;;;;;;;;;;;;5050393;28;1014;-69
2023/10/17 13:51:16;;;;;;;;;;;;;;;;;;5052035;28;927;-69
2023/10/17 13:53:44;;;;;;;;;;;;;;;;;;5052457;28;812;-69
2023/10/17 13:56:18;;;;;;;;;;;;;;;;;;5052597;28;840;-69
2023/10/17 13:58:44;;;;;;;;;;;;;;;;;;5051616;28;1989;-69
2023/10/17 14:01:27;;;;;;;;;;;;;;;;;;5050763;28;867;-69
2023/10/17 14:03:56;;;;;;;;;;;;;;;;;;5051170;28;935;-69
2023/10/17 14:06:22;;;;;;;;;;;;;;;;;;5051813;28;890;-69
2023/10/17 14:08:47;;;;;;;;;;;;;;;;;;5051482;28;971;-69
2023/10/17 14:11:18;;;;;;;;;;;;;;;;;;5052030;28;908;-69
2023/10/17 14:13:47;;;;;;;;;;;;;;;;;;5051286;28;820;-69
2023/10/17 14:16:14;;;;;;;;;;;;;;;;;;5051218;28;924;-69
2023/10/17 14:19:15;;;;;;;;;;;;;;;;;;5050835;28;1895;-69
2023/10/17 14:21:34;;;;;;;;;;;;;;;;;;5050064;28;1169;-69
2023/10/17 14:27:12;;;;;;;;;;;;;;;;;;5028103;28;1074;-69
2023/10/17 14:29:37;;;;;;;;;;;;;;;;;;5012332;28;1009;-69
2023/10/17 14:32:02;;;;;;;;;;;;;;;;;;5042289;28;1313;-69
2023/10/17 14:34:27;;;;;;;;;;;;;;;;;;5055269;28;1373;-69
2023/10/17 14:36:53;;;;;;;;;;;;;;;;;;5054677;28;849;-69
2023/10/17 14:39:20;;;;;;;;;;;;;;;;;;5053138;28;1959;-69
2023/10/17 14:41:47;;;;;;;;;;;;;;;;;;5053560;28;1203;-68
2023/10/17 14:44:12;;;;;;;;;;;;;;;;;;5054888;28;834;-69
2023/10/17 14:46:38;;;;;;;;;;;;;;;;;;5053275;28;1344;-69
2023/10/17 14:49:03;;;;;;;;;;;;;;;;;;5052854;28;797;-68
2023/10/17 14:51:28;;;;;;;;;;;;;;;;;;5055026;28;920;-69
2023/10/17 14:53:55;;;;;;;;;;;;;;;;;;5054669;28;825;-69
2023/10/17 14:56:21;;;;;;;;;;;;;;;;;;5054742;28;949;-68
2023/10/17 14:58:49;;;;;;;;;;;;;;;;;;5054472;28;1898;-68
2023/10/17 15:01:14;;;;;;;;;;;;;;;;;;5053379;28;864;-69
2023/10/17 15:03:41;;;;;;;;;;;;;;;;;;5055133;28;849;-69
2023/10/17 15:06:09;;;;;;;;;;;;;;;;;;5052657;28;1251;-69
2023/10/17 15:08:35;;;;;;;;;;;;;;;;;;5053520;28;893;-69
2023/10/17 15:11:06;;;;;;;;;;;;;;;;;;5054239;28;1014;-69
2023/10/17 15:13:32;;;;;;;;;;;;;;;;;;5054854;28;812;-69
2023/10/17 15:15:58;;;;;;;;;;;;;;;;;;5053911;28;848;-69
2023/10/17 15:18:23;;;;;;;;;;;;;;;;;;5053294;28;1910;-69
2023/10/17 15:20:49;;;;;;;;;;;;;;;;;;5054232;28;888;-69
2023/10/17 15:23:14;;;;;;;;;;;;;;;;;;5053991;28;821;-68
2023/10/17 15:25:39;;;;;;;;;;;;;;;;;;5054734;28;782;-68
2023/10/17 15:28:05;;;;;;;;;;;;;;;;;;5052714;28;852;-69
2023/10/17 15:30:32;;;;;;;;;;;;;;;;;;5055226;28;915;-69
2023/10/17 15:32:58;;;;;;;;;;;;;;;;;;5055500;28;876;-69
2023/10/17 15:35:24;;;;;;;;;;;;;;;;;;5056007;28;692;-69
2023/10/17 15:37:50;;;;;;;;;;;;;;;;;;5054332;28;1895;-68
2023/10/17 15:40:17;;;;;;;;;;;;;;;;;;5055166;28;845;-68
2023/10/17 15:42:51;;;;;;;;;;;;;;;;;;5055672;28;928;-68
2023/10/17 15:45:17;;;;;;;;;;;;;;;;;;5055889;28;1023;-68
2023/10/17 15:47:44;;;;;;;;;;;;;;;;;;5055490;28;877;-68
2023/10/17 15:50:12;;;;;;;;;;;;;;;;;;5054345;28;924;-68
2023/10/17 15:52:38;;;;;;;;;;;;;;;;;;5054399;28;923;-68
2023/10/17 15:55:05;;;;;;;;;;;;;;;;;;5053944;28;868;-68
2023/10/17 15:57:32;;;;;;;;;;;;;;;;;;5052992;28;1013;-69
2023/10/17 15:59:58;;;;;;;;;;;;;;;;;;5052127;28;1969;-69
2023/10/17 16:02:23;;;;;;;;;;;;;;;;;;5054578;28;861;-69
2023/10/17 16:04:48;;;;;;;;;;;;;;;;;;5053786;28;908;-69
2023/10/17 16:07:14;;;;;;;;;;;;;;;;;;5053110;28;1022;-69
2023/10/17 16:09:39;;;;;;;;;;;;;;;;;;5052407;28;821;-68
2023/10/17 16:12:05;;;;;;;;;;;;;;;;;;5053634;28;1021;-69
2023/10/17 16:14:30;;;;;;;;;;;;;;;;;;5053610;28;818;-68
2023/10/17 16:16:56;;;;;;;;;;;;;;;;;;5053416;28;967;-68
2023/10/17 16:19:21;;;;;;;;;;;;;;;;;;5052056;28;1875;-68
2023/10/17 16:21:46;;;;;;;;;;;;;;;;;;5052118;28;1183;-69
2023/10/17 16:24:11;;;;;;;;;;;;;;;;;;5053293;28;912;-69
2023/10/17 16:26:37;;;;;;;;;;;;;;;;;;5051955;28;956;-69
2023/10/17 16:29:04;;;;;;;;;;;;;;;;;;5052548;28;924;-69
2023/10/17 16:31:30;;;;;;;;;;;;;;;;;;5051897;28;1326;-69
2023/10/17 16:33:55;;;;;;;;;;;;;;;;;;5051299;28;1465;-69
2023/10/17 16:36:21;;;;;;;;;;;;;;;;;;5052788;28;821;-69
2023/10/17 16:38:46;;;;;;;;;;;;;;;;;;5053070;28;1984;-69
2023/10/17 16:41:12;;;;;;;;;;;;;;;;;;5052297;28;912;-69
2023/10/17 16:43:37;;;;;;;;;;;;;;;;;;5053147;28;825;-69
2023/10/17 16:46:04;;;;;;;;;;;;;;;;;;5052616;28;987;-69
2023/10/17 16:48:30;;;;;;;;;;;;;;;;;;5052420;28;868;-69
2023/10/17 16:50:55;;;;;;;;;;;;;;;;;;5051252;28;1699;-69
2023/10/17 16:53:21;;;;;;;;;;;;;;;;;;5052612;28;817;-69
2023/10/17 16:55:46;;;;;;;;;;;;;;;;;;5051525;28;869;-69
2023/10/17 16:58:11;;;;;;;;;;;;;;;;;;5051736;28;1964;-69
2023/10/17 17:00:37;;;;;;;;;;;;;;;;;;5052701;28;1233;-69
2023/10/17 17:03:02;;;;;;;;;;;;;;;;;;5051886;28;845;-69
2023/10/17 17:05:27;;;;;;;;;;;;;;;;;;5052989;28;864;-69
2023/10/17 17:07:53;;;;;;;;;;;;;;;;;;5052106;28;1057;-69
2023/10/17 17:10:19;;;;;;;;;;;;;;;;;;5053292;28;888;-69
2023/10/17 17:12:45;;;;;;;;;;;;;;;;;;5052740;28;845;-69
2023/10/17 17:15:11;;;;;;;;;;;;;;;;;;5051423;28;884;-69
2023/10/17 17:17:37;;;;;;;;;;;;;;;;;;5052772;28;1968;-69
2023/10/17 17:20:03;;;;;;;;;;;;;;;;;;5051811;28;1183;-70
2023/10/17 17:22:28;;;;;;;;;;;;;;;;;;5036241;28;1405;-70
2023/10/17 17:24:54;;;;;;;;;;;;;;;;;;5035673;28;1335;-70
2023/10/17 17:27:26;;;;;;;;;;;;;;;;;;5053533;28;821;-71
2023/10/17 17:29:52;;;;;;;;;;;;;;;;;;5052370;28;892;-69
2023/10/17 17:32:17;;;;;;;;;;;;;;;;;;5051677;28;1342;-68
2023/10/17 17:34:43;;;;;;;;;;;;;;;;;;5052305;28;960;-68
2023/10/17 17:37:09;;;;;;;;;;;;;;;;;;5050890;28;1652;-68
2023/10/17 17:39:37;;;;;;;;;;;;;;;;;;5052743;28;1901;-68
2023/10/17 17:42:02;;;;;;;;;;;;;;;;;;5066740;28;1253;-68
2023/10/17 17:44:28;;;;;;;;;;;;;;;;;;5050610;28;1311;-68
2023/10/17 17:46:53;;;;;;;;;;;;;;;;;;5052005;28;936;-68
2023/10/17 17:49:18;;;;;;;;;;;;;;;;;;5051948;28;884;-68
2023/10/17 17:51:43;;;;;;;;;;;;;;;;;;5034713;28;1409;-68
2023/10/17 17:54:09;;;;;;;;;;;;;;;;;;5052148;28;895;-68
2023/10/17 17:56:34;;;;;;;;;;;;;;;;;;5051153;28;987;-68
2023/10/17 17:59:01;;;;;;;;;;;;;;;;;;5049563;28;1961;-68
2023/10/17 18:01:27;;;;;;;;;;;;;;;;;;5052365;28;806;-68
2023/10/17 18:03:53;;;;;;;;;;;;;;;;;;5033855;28;1302;-68
2023/10/17 18:06:19;;;;;;;;;;;;;;;;;;5050304;28;906;-68
2023/10/17 18:08:44;;;;;;;;;;;;;;;;;;5050846;28;1472;-70
2023/10/17 18:11:09;;;;;;;;;;;;;;;;;;5033350;28;1215;-69
2023/10/17 18:13:34;;;;;;;;;;;;;;;;;;5051552;28;904;-68
2023/10/17 18:16:01;;;;;;;;;;;;;;;;;;5050158;28;976;-68
2023/10/17 18:18:26;;;;;;;;;;;;;;;;;;5051256;28;1906;-69
2023/10/17 18:21:06;;;;;;;;;;;;;;;;;;5051121;28;790;-69
2023/10/17 18:23:31;;;;;;;;;;;;;;;;;;5051195;28;826;-68
2023/10/17 18:25:58;;;;;;;;;;;;;;;;;;5049376;28;1124;-69
2023/10/17 18:28:24;;;;;;;;;;;;;;;;;;5049921;28;1330;-68
2023/10/17 18:30:49;;;;;;;;;;;;;;;;;;5033626;28;841;-68
2023/10/17 18:33:15;;;;;;;;;;;;;;;;;;5050398;28;810;-68
2023/10/17 18:35:40;;;;;;;;;;;;;;;;;;5050925;28;833;-68
2023/10/17 18:38:05;;;;;;;;;;;;;;;;;;5049142;28;1898;-68
2023/10/17 18:40:31;;;;;;;;;;;;;;;;;;5051110;28;896;-69
2023/10/17 18:42:56;;;;;;;;;;;;;;;;;;5050277;28;834;-68
2023/10/17 18:45:23;;;;;;;;;;;;;;;;;;5033046;28;1424;-69
2023/10/17 18:47:49;;;;;;;;;;;;;;;;;;5051047;28;817;-68
2023/10/17 18:50:15;;;;;;;;;;;;;;;;;;5032670;28;1286;-68
2023/10/17 18:52:40;;;;;;;;;;;;;;;;;;5033120;28;861;-68
2023/10/17 18:55:12;;;;;;;;;;;;;;;;;;5050311;28;835;-68
2023/10/17 18:57:39;;;;;;;;;;;;;;;;;;5051251;28;864;-68
2023/10/17 19:00:09;;;;;;;;;;;;;;;;;;5050256;28;1902;-68
2023/10/17 19:02:34;;;;;;;;;;;;;;;;;;5051497;28;920;-68
2023/10/17 19:04:59;;;;;;;;;;;;;;;;;;5049189;28;1168;-68
2023/10/17 19:07:25;;;;;;;;;;;;;;;;;;5050906;28;898;-68
2023/10/17 19:09:50;;;;;;;;;;;;;;;;;;5051411;28;965;-69
2023/10/17 19:12:15;;;;;;;;;;;;;;;;;;5050430;28;1337;-69
2023/10/17 19:14:40;;;;;;;;;;;;;;;;;;5051933;28;880;-69
2023/10/17 19:17:06;;;;;;;;;;;;;;;;;;5053920;28;841;-68
2023/10/17 19:19:31;;;;;;;;;;;;;;;;;;5055565;28;1979;-68
2023/10/17 19:21:57;;;;;;;;;;;;;;;;;;5054560;28;865;-68
2023/10/17 19:24:22;;;;;;;;;;;;;;;;;;5037337;28;1525;-68
2023/10/17 19:26:48;;;;;;;;;;;;;;;;;;5054831;28;912;-67
2023/10/17 19:29:13;;;;;;;;;;;;;;;;;;5036828;28;1467;-68